MMTO/TLC METAR and TAF weather

Enter ICAO airport designator
Station Type Date Time Source
MMTO METAR 2021/07/30 06:48 UTC NOAA

MMTO 300648Z 07005KT 6SM BKN015 BKN070 13/12 A3040 RMK 8/570 HZY


Station Type Date Time Source
MMTO Decoded METAR 2021/07/30 06:48 UTC NOAA

Toluca / Jose Maria , Mexico (MMTO) 19-21N 099-34W
Jul 30, 2021 - 02:48 AM EDT / 2021.07.30 0648 UTC
Wind: from the ENE (070 degrees) at 6 MPH (5 KT):0
Visibility: 6 mile(s):0
Sky conditions: mostly cloudy
Temperature: 55 F (13 C)
Dew Point: 53 F (12 C)
Relative Humidity: 93%
Pressure (altimeter): 30.4 in. Hg (1029 hPa)
ob: MMTO 300648Z 07005KT 6SM BKN015 BKN070 13/12 A3040 RMK 8/570 HZY
cycle: 7

Station Type Date Time Source
MMTO TAF 2021/07/30 06:42 UTC NOAA

TAF TAF MMTO 300439Z 3006/3112 12006KT P6SM SCT015 OVC070 TX21/3020Z TN11/3012Z
TEMPO 3006/3009 5SM TSRA BKN015CB
FM301000 00000KT 4SM HZ SCT015
FM301800 02012KT 6SM HZ SCT015 BKN080 BKN250
FM302300 32010KT 5SM -RA BKN015CB
TEMPO 3023/3103 4SM TSRA BKN015CB
FM310500 03005KT 5SM HZ SCT015 BKN250
FM311000 00000KT 4SM HZ SCT015

Example: see airport list